Rae — WDF3909 — position and weather

sailwx.info

Track history (hours):
 
Tides and Currents Weather Stations Pressure Air Temp Water Temp Dewpoint Dewpoint Depression Visibility Wind Speed Wind Dir Waves Ship Positions

Rae

Owner: Fox Marine Corporation, Easton, PA. More information available from US FCC via Universal Licensing System and Coast Guard Vessel Documentation Center.

Last reported at 2015-Mar-27 18:33 UTC. Time now 2015-Mar-27 19:14 UTC.
Position N 40°40' W 073°60'.

; draft 2 m.

Type: Fishing. MMSI: 367445510.

Date/timePositionNaut miles runAvg speedWind from/ knotsBaromVisibWave heightAir tempDewpointWater temp
2015-Mar-27 18:33N 40°40' W 073°60'0 0.2
2015-Mar-27 17:33N 40°40' W 073°60'2 1.6
2015-Mar-27 16:33N 40°39' W 074°02'2 1.8
2015-Mar-27 15:33N 40°40' W 074°04'  
2015-Mar-23 13:33N 40°45' W 074°01'1 1.4
2015-Mar-23 12:33N 40°43' W 074°01'3 2.9
2015-Mar-23 11:33N 40°41' W 074°01'2 0.0
2015-Mar-21 09:33N 40°41' W 074°04'3 2.5
2015-Mar-21 08:33N 40°40' W 074°01'1 0.7
2015-Mar-21 07:33N 40°40' W 074°01'0 0.1
2015-Mar-21 06:33N 40°40' W 074°01'5 4.7
2015-Mar-21 05:33N 40°44' W 073°58'6 6.1
2015-Mar-21 04:32N 40°48' W 073°52'0 0.1
2015-Mar-21 02:30N 40°48' W 073°52'5 5.1
2015-Mar-21 01:32N 40°45' W 073°57'6 6.0
2015-Mar-21 00:33N 40°41' W 074°02'2 2.3
2015-Mar-20 23:33N 40°41' W 074°04'0 0.0
2015-Mar-19 18:33N 40°41' W 074°04'2 2.0
2015-Mar-19 17:33N 40°41' W 074°02'1 1.4
2015-Mar-19 16:33N 40°40' W 074°01'2 2.4
2015-Mar-19 15:33N 40°42' W 074°00'6 1.4
2015-Mar-19 11:25N 40°47' W 073°55'6 6.7
2015-Mar-19 10:33N 40°42' W 073°60'4 3.6
2015-Mar-19 09:33N 40°41' W 074°04'  
Track history (hours):
 
Tides and Currents Weather Stations Pressure Air Temp Water Temp Dewpoint Dewpoint Depression Visibility Wind Speed Wind Dir Waves Ship Positions

Rae

Owner: Fox Marine Corporation, Easton, PA. More information available from US FCC via Universal Licensing System and Coast Guard Vessel Documentation Center.

Last reported at 2015-Mar-27 18:33 UTC. Time now 2015-Mar-27 19:14 UTC.
Position N 40°40' W 073°60'.

; draft 2 m.

Type: Fishing. MMSI: 367445510.

Date/timePositionNaut miles runAvg speedWind from/ knotsBaromVisibWave heightAir tempDewpointWater temp
2015-Mar-27 18:33N 40°40' W 073°60'0 0.2
2015-Mar-27 17:33N 40°40' W 073°60'2 1.6
2015-Mar-27 16:33N 40°39' W 074°02'2 1.8
2015-Mar-27 15:33N 40°40' W 074°04'  
2015-Mar-23 13:33N 40°45' W 074°01'1 1.4
2015-Mar-23 12:33N 40°43' W 074°01'3 2.9
2015-Mar-23 11:33N 40°41' W 074°01'2 0.0
2015-Mar-21 09:33N 40°41' W 074°04'3 2.5
2015-Mar-21 08:33N 40°40' W 074°01'1 0.7
2015-Mar-21 07:33N 40°40' W 074°01'0 0.1
2015-Mar-21 06:33N 40°40' W 074°01'5 4.7
2015-Mar-21 05:33N 40°44' W 073°58'6 6.1
2015-Mar-21 04:32N 40°48' W 073°52'0 0.1
2015-Mar-21 02:30N 40°48' W 073°52'5 5.1
2015-Mar-21 01:32N 40°45' W 073°57'6 6.0
2015-Mar-21 00:33N 40°41' W 074°02'2 2.3
2015-Mar-20 23:33N 40°41' W 074°04'0 0.0
2015-Mar-19 18:33N 40°41' W 074°04'2 2.0
2015-Mar-19 17:33N 40°41' W 074°02'1 1.4
2015-Mar-19 16:33N 40°40' W 074°01'2 2.4
2015-Mar-19 15:33N 40°42' W 074°00'6 1.4
2015-Mar-19 11:25N 40°47' W 073°55'6 6.7
2015-Mar-19 10:33N 40°42' W 073°60'4 3.6
2015-Mar-19 09:33N 40°41' W 074°04'  

Dump ship's entire track history